Time;durP1;ratioP1;P1;durP2;ratioP2;P2;SDS_P1;SDS_P2;PMS_P1;PMS_P2;Temp;Humidity;BMP_temperature;BMP_pressure;BME280_temperature;BME280_humidity;BME280_pressure;Samples;Min_cycle;Max_cycle;Signal;HPM_P1;HPM_P2
2021/09/25 00:00:00;;;;;;;26.07;18.07;;;;;;;19.04;nan;100416.03;5074127;28;20199;-67
2021/09/25 00:02:25;;;;;;;26.67;18.43;;;;;;;18.46;nan;100409.78;5073871;28;20213;-67
2021/09/25 00:04:51;;;;;;;24.57;18.60;;;;;;;18.28;nan;100410.50;5055465;28;20194;-67
2021/09/25 00:07:16;;;;;;;32.57;21.17;;;;;;;18.43;nan;100424.44;5072603;28;20199;-67
2021/09/25 00:09:42;;;;;;;29.73;20.53;;;;;;;18.40;nan;100417.47;5074821;28;20637;-66
2021/09/25 00:12:10;;;;;;;29.67;20.57;;;;;;;18.46;nan;100429.53;5076493;28;20227;-67
2021/09/25 00:14:37;;;;;;;24.90;19.83;;;;;;;18.50;nan;100439.06;5058661;28;20644;-67
2021/09/25 00:17:03;;;;;;;26.77;19.47;;;;;;;18.64;nan;100414.38;5076481;28;20273;-66
2021/09/25 00:19:28;;;;;;;24.23;19.30;;;;;;;18.65;nan;100407.13;5076294;28;20205;-67
2021/09/25 00:21:53;;;;;;;34.03;19.70;;;;;;;18.68;nan;100410.38;5076251;28;20206;-67
2021/09/25 00:24:19;;;;;;;26.67;19.07;;;;;;;18.83;nan;100410.78;5076457;28;20537;-67
2021/09/25 00:26:44;;;;;;;26.53;18.73;;;;;;;18.60;nan;100399.41;5076099;28;20323;-67
2021/09/25 00:29:09;;;;;;;24.87;20.47;;;;;;;18.92;nan;100403.66;5076222;28;20587;-67
2021/09/25 00:31:34;;;;;;;26.03;18.17;;;;;;;18.95;nan;100403.38;5058578;28;20171;-67
2021/09/25 00:34:00;;;;;;;28.47;18.43;;;;;;;18.87;nan;100395.97;5058812;28;20579;-67
2021/09/25 00:36:25;;;;;;;24.50;19.43;;;;;;;18.79;nan;100398.56;5076255;28;20203;-67
2021/09/25 00:38:50;;;;;;;26.60;18.57;;;;;;;19.18;nan;100391.22;5076287;28;20633;-67
2021/09/25 00:41:16;;;;;;;28.30;20.00;;;;;;;19.22;nan;100389.91;5076004;28;20194;-67
2021/09/25 00:43:41;;;;;;;26.07;19.33;;;;;;;19.00;nan;100372.22;5076549;28;20186;-67
2021/09/25 00:46:06;;;;;;;26.83;19.17;;;;;;;18.94;nan;100380.88;5076119;28;20202;-67
2021/09/25 00:48:31;;;;;;;25.93;19.93;;;;;;;18.99;nan;100389.44;5058840;28;20183;-67
2021/09/25 00:50:57;;;;;;;26.50;19.20;;;;;;;19.22;nan;100389.91;5076355;28;20167;-67
2021/09/25 00:53:22;;;;;;;26.27;19.70;;;;;;;19.20;nan;100385.66;5076174;28;20304;-67
2021/09/25 00:55:48;;;;;;;26.83;18.80;;;;;;;19.06;nan;100387.00;5075578;28;20171;-68
2021/09/25 00:58:13;;;;;;;26.20;19.23;;;;;;;19.16;nan;100392.38;5075833;28;20190;-67
2021/09/25 01:00:39;;;;;;;27.37;19.63;;;;;;;19.06;nan;100384.28;5057779;28;20676;-67
2021/09/25 01:03:04;;;;;;;24.07;18.03;;;;;;;18.99;nan;100385.88;5076005;28;20600;-67
2021/09/25 01:05:29;;;;;;;23.27;17.43;;;;;;;19.16;nan;100386.97;5075543;28;20174;-67
2021/09/25 01:07:56;;;;;;;22.40;17.70;;;;;;;19.20;nan;100402.75;5075869;28;20206;-67
2021/09/25 01:10:21;;;;;;;22.97;17.33;;;;;;;19.11;nan;100402.78;5075949;28;20163;-67
2021/09/25 01:12:47;;;;;;;23.40;17.10;;;;;;;19.10;nan;100420.00;5057911;28;20171;-67
2021/09/25 01:15:13;;;;;;;22.07;17.07;;;;;;;19.16;nan;100400.47;5057662;28;20266;-67
2021/09/25 01:17:38;;;;;;;25.03;16.83;;;;;;;18.90;nan;100390.28;5075387;28;20205;-67
2021/09/25 01:20:06;;;;;;;24.90;17.17;;;;;;;19.18;nan;100410.16;5057203;28;20218;-67
2021/09/25 01:22:32;;;;;;;24.30;16.97;;;;;;;18.93;nan;100400.81;5074996;28;20266;-67
2021/09/25 01:24:57;;;;;;;25.20;17.40;;;;;;;19.06;nan;100411.34;5077112;28;20177;-67
2021/09/25 01:27:22;;;;;;;24.87;18.40;;;;;;;18.97;nan;100402.25;5076817;28;20206;-66
2021/09/25 01:29:48;;;;;;;26.53;18.17;;;;;;;18.91;nan;100405.50;5076151;28;20175;-67
2021/09/25 01:32:13;;;;;;;23.27;16.30;;;;;;;19.23;nan;100409.72;5076150;28;20327;-67
2021/09/25 01:34:38;;;;;;;20.90;16.97;;;;;;;18.96;nan;100383.47;5075390;28;20179;-67
2021/09/25 01:37:05;;;;;;;22.10;17.10;;;;;;;19.25;nan;100394.19;5075107;28;20667;-67
2021/09/25 01:39:31;;;;;;;22.07;16.87;;;;;;;18.86;nan;100406.94;5075074;28;20648;-67
2021/09/25 01:41:58;;;;;;;25.03;18.13;;;;;;;18.88;nan;100411.22;5056965;28;20244;-67
2021/09/25 01:44:23;;;;;;;25.23;17.73;;;;;;;19.05;nan;100407.78;5056935;28;20277;-68
2021/09/25 01:46:49;;;;;;;27.60;17.77;;;;;;;19.07;nan;100417.59;5057171;28;20194;-68
2021/09/25 01:49:14;;;;;;;22.77;16.07;;;;;;;18.99;nan;100421.03;5074811;28;20225;-68
2021/09/25 01:51:40;;;;;;;23.87;16.33;;;;;;;19.08;nan;100424.72;5074816;28;20177;-67
2021/09/25 01:54:05;;;;;;;22.50;17.10;;;;;;;18.83;nan;100412.63;5056741;28;20564;-68
2021/09/25 01:56:31;;;;;;;23.37;16.13;;;;;;;18.89;nan;100418.31;5074464;28;20576;-68
2021/09/25 01:58:56;;;;;;;27.90;16.80;;;;;;;18.81;nan;100418.19;5056920;28;20181;-67
2021/09/25 02:01:21;;;;;;;21.60;16.50;;;;;;;18.95;nan;100423.16;5056633;28;20234;-67
2021/09/25 02:03:47;;;;;;;21.90;16.20;;;;;;;18.79;nan;100441.81;5074546;28;20166;-67
2021/09/25 02:06:12;;;;;;;22.23;15.97;;;;;;;18.82;nan;100430.72;5056936;28;20609;-67
2021/09/25 02:08:39;;;;;;;22.47;15.27;;;;;;;18.80;nan;100431.84;5074608;28;20668;-67
2021/09/25 02:11:05;;;;;;;21.87;15.70;;;;;;;18.84;nan;100441.38;5057066;28;20196;-67
2021/09/25 02:13:31;;;;;;;19.50;15.17;;;;;;;18.78;nan;100428.44;5056784;28;20171;-67
2021/09/25 02:15:57;;;;;;;18.97;14.60;;;;;;;18.83;nan;100427.00;5074646;28;20249;-67
2021/09/25 02:18:23;;;;;;;20.33;14.80;;;;;;;18.80;nan;100430.00;5056707;28;20278;-68
2021/09/25 02:20:48;;;;;;;20.47;14.67;;;;;;;18.89;nan;100429.13;5074857;28;20625;-68
2021/09/25 02:23:13;;;;;;;18.87;15.13;;;;;;;18.93;nan;100448.63;5074847;28;20518;-66
2021/09/25 02:25:38;;;;;;;19.93;15.30;;;;;;;18.85;nan;100438.53;5074410;28;20220;-67
2021/09/25 02:28:04;;;;;;;19.53;14.37;;;;;;;18.86;nan;100440.25;5056532;28;20175;-68
2021/09/25 02:30:29;;;;;;;19.50;14.50;;;;;;;18.65;nan;100436.84;5074424;28;20213;-68
2021/09/25 02:32:55;;;;;;;20.73;15.00;;;;;;;18.76;nan;100446.66;5074270;28;20260;-67
2021/09/25 02:35:21;;;;;;;19.87;15.37;;;;;;;18.79;nan;100439.13;5055846;28;20633;-67
2021/09/25 02:37:47;;;;;;;20.57;14.60;;;;;;;18.72;nan;100449.66;5074061;28;20202;-67
2021/09/25 02:40:13;;;;;;;19.70;14.90;;;;;;;18.78;nan;100450.94;5073689;28;20199;-67
2021/09/25 02:42:38;;;;;;;21.83;16.43;;;;;;;18.67;nan;100451.09;5056186;28;20194;-68
2021/09/25 02:45:04;;;;;;;23.83;15.27;;;;;;;18.63;nan;100465.88;5056162;28;20640;-67
2021/09/25 02:47:30;;;;;;;23.73;16.13;;;;;;;18.47;nan;100458.28;5055684;28;20194;-67
2021/09/25 02:49:55;;;;;;;19.00;15.37;;;;;;;18.44;nan;100464.81;5055957;28;20229;-67
2021/09/25 02:52:20;;;;;;;22.77;18.27;;;;;;;18.71;nan;100466.88;5073505;28;20227;-67
2021/09/25 02:54:46;;;;;;;21.27;16.17;;;;;;;18.74;nan;100476.53;5073525;28;20182;-66
2021/09/25 02:57:11;;;;;;;23.93;15.97;;;;;;;18.62;nan;100469.56;5078135;23;20247;-73
2021/09/25 02:59:36;;;;;;;21.23;16.90;;;;;;;18.56;nan;100480.88;5055380;28;20189;-74
2021/09/25 03:02:01;;;;;;;25.50;17.20;;;;;;;18.56;nan;100467.38;5055449;28;20203;-73
2021/09/25 03:04:27;;;;;;;26.00;17.60;;;;;;;18.35;nan;100475.63;5055337;28;20179;-74
2021/09/25 03:06:52;;;;;;;24.47;17.40;;;;;;;18.28;nan;100469.94;5073451;28;20205;-72
2021/09/25 03:09:17;;;;;;;26.33;18.10;;;;;;;18.30;nan;100473.34;5055394;28;20179;-73
2021/09/25 03:11:43;;;;;;;26.20;18.40;;;;;;;18.27;nan;100484.44;5038504;28;20725;-74
2021/09/25 03:14:08;;;;;;;26.40;18.37;;;;;;;18.28;nan;100483.44;5073130;28;20217;-72
2021/09/25 03:16:33;;;;;;;23.87;18.20;;;;;;;18.31;nan;100475.03;5073477;28;20218;-73
2021/09/25 03:18:59;;;;;;;21.97;17.17;;;;;;;18.27;nan;100479.03;5055183;28;20209;-73
2021/09/25 03:21:24;;;;;;;23.50;16.63;;;;;;;18.49;nan;100468.94;5055087;28;20194;-73
2021/09/25 03:23:50;;;;;;;24.67;17.80;;;;;;;18.52;nan;100468.66;5038258;28;20167;-73
2021/09/25 03:26:15;;;;;;;21.60;16.80;;;;;;;18.46;nan;100474.63;5072876;28;20175;-74
2021/09/25 03:28:40;;;;;;;20.93;16.03;;;;;;;18.47;nan;100462.81;5055083;28;20191;-72
2021/09/25 03:31:05;;;;;;;21.40;15.30;;;;;;;18.48;nan;100480.75;5072898;28;20167;-73
2021/09/25 03:33:31;;;;;;;21.10;15.80;;;;;;;18.58;nan;100482.44;5073165;28;20175;-73
2021/09/25 03:35:56;;;;;;;19.80;15.47;;;;;;;18.52;nan;100482.16;5072867;28;20170;-73
2021/09/25 03:38:24;;;;;;;21.83;15.50;;;;;;;18.46;nan;100469.22;5072838;28;20191;-74
2021/09/25 03:40:50;;;;;;;28.57;18.07;;;;;;;18.59;nan;100486.91;5038485;28;20710;-74
2021/09/25 03:43:15;;;;;;;24.77;16.23;;;;;;;18.49;nan;100486.00;5038048;28;20171;-73
2021/09/25 03:45:41;;;;;;;22.20;15.60;;;;;;;18.49;nan;100491.41;5054814;28;20194;-74
2021/09/25 03:48:06;;;;;;;18.23;14.83;;;;;;;18.68;nan;100487.94;5073111;28;20186;-75
2021/09/25 03:50:32;;;;;;;22.63;14.87;;;;;;;18.37;nan;100493.41;5072798;28;20170;-74
2021/09/25 03:52:58;;;;;;;21.33;15.43;;;;;;;18.54;nan;100485.59;5072766;28;20190;-74
2021/09/25 03:55:23;;;;;;;17.97;13.50;;;;;;;18.58;nan;100484.31;5055131;28;20637;-74
2021/09/25 03:57:49;;;;;;;26.23;15.27;;;;;;;18.35;nan;100476.47;5072636;28;20289;-73
2021/09/25 04:00:14;;;;;;;18.90;14.60;;;;;;;18.51;nan;100478.63;5072408;28;20206;-73
2021/09/25 04:02:39;;;;;;;17.73;14.47;;;;;;;18.56;nan;100472.78;5054630;28;20175;-74
2021/09/25 04:05:05;;;;;;;21.67;14.50;;;;;;;18.56;nan;100489.00;5072664;28;20171;-74
2021/09/25 04:07:31;;;;;;;18.03;14.20;;;;;;;18.69;nan;100489.63;5054394;28;20282;-74
2021/09/25 04:09:56;;;;;;;20.03;14.03;;;;;;;18.65;nan;100489.06;5072880;28;20186;-74
2021/09/25 04:12:21;;;;;;;20.57;15.40;;;;;;;18.72;nan;100490.19;5072788;28;20580;-73
2021/09/25 04:14:46;;;;;;;21.57;14.13;;;;;;;18.64;nan;100491.91;5054533;28;20206;-73
2021/09/25 04:17:12;;;;;;;19.20;13.57;;;;;;;18.59;nan;100491.44;5072667;28;20201;-74
2021/09/25 04:19:37;;;;;;;22.53;14.33;;;;;;;18.71;nan;100498.44;5072783;28;20175;-74
2021/09/25 04:22:02;;;;;;;22.27;14.67;;;;;;;18.55;nan;100488.16;5054647;28;20202;-74
2021/09/25 04:24:28;;;;;;;17.17;14.03;;;;;;;18.63;nan;100482.94;5054497;28;20202;-74
2021/09/25 04:26:53;;;;;;;20.30;14.20;;;;;;;18.75;nan;100483.66;5072894;28;20316;-74
2021/09/25 04:29:18;;;;;;;22.00;14.90;;;;;;;18.76;nan;100474.53;5054395;28;20171;-74
2021/09/25 04:31:46;;;;;;;16.77;13.90;;;;;;;18.64;nan;100464.88;5054494;28;20171;-74
2021/09/25 04:34:13;;;;;;;19.77;14.13;;;;;;;18.58;nan;100478.91;5054898;28;20179;-74
2021/09/25 04:36:40;;;;;;;17.33;13.80;;;;;;;18.58;nan;100489.72;5037627;28;20252;-74
2021/09/25 04:39:06;;;;;;;24.33;14.60;;;;;;;18.51;nan;100493.97;5054556;28;20202;-74
2021/09/25 04:41:31;;;;;;;23.07;15.73;;;;;;;18.53;nan;100492.84;5054260;28;20230;-73
2021/09/25 04:43:56;;;;;;;21.30;14.57;;;;;;;18.42;nan;100499.22;5054335;28;20179;-74
2021/09/25 04:46:21;;;;;;;21.70;14.60;;;;;;;18.49;nan;100483.31;5072316;28;20202;-74
2021/09/25 04:48:48;;;;;;;21.60;14.53;;;;;;;18.55;nan;100487.28;5072456;28;20180;-74
2021/09/25 04:51:14;;;;;;;27.07;14.57;;;;;;;18.41;nan;100494.81;5054125;28;20209;-74
2021/09/25 04:53:39;;;;;;;20.60;15.10;;;;;;;18.37;nan;100501.50;5054187;28;20167;-73
2021/09/25 04:56:05;;;;;;;21.40;14.57;;;;;;;18.47;nan;100503.34;5072945;28;20637;-73
2021/09/25 04:58:30;;;;;;;20.93;13.63;;;;;;;18.45;nan;100508.91;5057659;28;20171;-73
2021/09/25 05:00:56;;;;;;;24.57;14.57;;;;;;;18.35;nan;100513.44;5057616;28;20202;-73
2021/09/25 05:03:22;;;;;;;22.20;13.67;;;;;;;18.46;nan;100515.16;5040782;28;20197;-73
2021/09/25 05:05:47;;;;;;;20.87;15.37;;;;;;;18.51;nan;100510.19;5057733;28;20167;-73
2021/09/25 05:08:12;;;;;;;20.50;14.57;;;;;;;18.52;nan;100525.41;5075441;28;20195;-73
2021/09/25 05:10:38;;;;;;;21.53;14.57;;;;;;;18.31;nan;100522.81;5057507;28;20171;-73
2021/09/25 05:13:03;;;;;;;20.50;13.90;;;;;;;18.74;nan;100512.53;5075220;28;20540;-73
2021/09/25 05:15:28;;;;;;;17.03;13.43;;;;;;;18.63;nan;100517.22;5075528;28;20171;-73
2021/09/25 05:17:53;;;;;;;19.43;13.90;;;;;;;18.46;nan;100521.41;5057186;28;20191;-73
2021/09/25 05:20:19;;;;;;;19.93;13.77;;;;;;;18.50;nan;100525.53;5075537;28;20198;-73
2021/09/25 05:22:44;;;;;;;18.90;13.27;;;;;;;18.72;nan;100522.63;5075160;28;20179;-73
2021/09/25 05:25:10;;;;;;;15.93;12.67;;;;;;;18.98;nan;100505.88;5057135;28;20177;-73
2021/09/25 05:27:35;;;;;;;17.47;12.70;;;;;;;18.88;nan;100505.84;5075132;28;20728;-75
2021/09/25 05:30:02;;;;;;;21.33;13.33;;;;;;;18.78;nan;100512.25;5057173;28;20540;-75
2021/09/25 05:32:27;;;;;;;17.93;12.77;;;;;;;18.76;nan;100514.25;5058017;28;20524;-74
2021/09/25 05:34:52;;;;;;;18.30;12.47;;;;;;;18.67;nan;100524.06;5075038;28;20202;-74
2021/09/25 05:37:18;;;;;;;15.73;12.00;;;;;;;18.65;nan;100523.34;5074951;28;20530;-73
2021/09/25 05:39:46;;;;;;;15.77;10.97;;;;;;;18.73;nan;100527.06;5074938;28;20178;-73
2021/09/25 05:42:13;;;;;;;17.70;11.93;;;;;;;18.79;nan;100522.06;5056638;28;20206;-73
2021/09/25 05:44:38;;;;;;;19.73;10.57;;;;;;;18.85;nan;100526.91;5056871;28;20262;-73
2021/09/25 05:47:04;;;;;;;16.07;10.83;;;;;;;18.87;nan;100528.47;5056812;28;20294;-73
2021/09/25 05:49:29;;;;;;;13.90;10.53;;;;;;;19.09;nan;100516.53;5056964;28;20170;-73
2021/09/25 05:51:54;;;;;;;16.90;10.03;;;;;;;19.04;nan;100522.38;5074547;28;20199;-73
2021/09/25 05:54:20;;;;;;;16.80;10.60;;;;;;;19.16;nan;100530.31;5074683;28;20167;-73
2021/09/25 05:56:45;;;;;;;16.43;11.07;;;;;;;19.24;nan;100525.91;5056440;28;20584;-74
2021/09/25 05:59:10;;;;;;;17.90;10.57;;;;;;;18.93;nan;100543.28;5074382;28;20266;-73
2021/09/25 06:01:36;;;;;;;12.93;9.97;;;;;;;19.05;nan;100532.19;5074781;28;20195;-74
2021/09/25 06:04:02;;;;;;;13.53;10.90;;;;;;;19.01;nan;100546.16;5074635;28;20296;-73
2021/09/25 06:06:28;;;;;;;17.67;10.77;;;;;;;18.98;nan;100551.84;5056203;28;20229;-73
2021/09/25 06:08:53;;;;;;;11.30;10.07;;;;;;;18.98;nan;100558.09;5074338;28;20171;-73
2021/09/25 06:11:19;;;;;;;15.77;9.93;;;;;;;18.85;nan;100554.81;5039507;28;20171;-73
2021/09/25 06:13:44;;;;;;;12.63;9.57;;;;;;;18.95;nan;100560.22;5074200;28;20175;-74
2021/09/25 06:16:09;;;;;;;10.77;9.20;;;;;;;18.93;nan;100564.91;5039554;28;20708;-74
2021/09/25 06:18:34;;;;;;;13.87;9.97;;;;;;;18.79;nan;100566.19;5074211;28;20222;-73
2021/09/25 06:21:00;;;;;;;13.73;10.10;;;;;;;18.68;nan;100572.56;5039639;28;20672;-74
2021/09/25 06:23:25;;;;;;;26.00;9.20;;;;;;;18.96;nan;100560.09;5074302;28;20220;-73
2021/09/25 06:25:50;;;;;;;13.87;9.73;;;;;;;18.87;nan;100570.88;5074773;28;20178;-73
2021/09/25 06:28:16;;;;;;;12.20;8.70;;;;;;;19.09;nan;100567.91;5056107;28;20673;-73
2021/09/25 06:30:41;;;;;;;11.23;9.20;;;;;;;19.00;nan;100563.38;5056069;28;20163;-74
2021/09/25 06:33:08;;;;;;;12.47;9.03;;;;;;;19.09;nan;100562.50;5056473;28;20216;-73
2021/09/25 06:35:33;;;;;;;11.30;9.53;;;;;;;19.00;nan;100563.38;5055958;28;20572;-74
2021/09/25 06:37:58;;;;;;;12.60;9.43;;;;;;;19.08;nan;100568.06;5073706;28;20236;-73
2021/09/25 06:40:23;;;;;;;14.90;9.93;;;;;;;18.97;nan;100574.47;5055783;28;20198;-73
2021/09/25 06:42:49;;;;;;;11.40;9.70;;;;;;;19.14;nan;100572.91;5055769;28;20206;-72
2021/09/25 06:45:14;;;;;;;14.17;10.20;;;;;;;18.96;nan;100587.13;5039174;28;20625;-73
2021/09/25 06:47:40;;;;;;;16.67;9.60;;;;;;;19.08;nan;100577.03;5055801;28;20625;-72
2021/09/25 06:50:05;;;;;;;15.40;11.00;;;;;;;19.03;nan;100588.28;5055744;28;20195;-74
2021/09/25 06:52:31;;;;;;;15.27;10.87;;;;;;;18.83;nan;100591.94;5073728;28;20186;-72
2021/09/25 06:54:56;;;;;;;13.80;9.97;;;;;;;19.11;nan;100608.34;5073618;28;20198;-73
2021/09/25 06:57:21;;;;;;;13.00;10.20;;;;;;;19.11;nan;100594.81;5073381;28;20202;-72
2021/09/25 06:59:46;;;;;;;17.63;10.90;;;;;;;19.12;nan;100607.34;5073916;28;20240;-72
2021/09/25 07:02:12;;;;;;;15.50;11.80;;;;;;;19.24;nan;100603.50;5073625;28;20194;-73
2021/09/25 07:04:37;;;;;;;14.53;10.70;;;;;;;19.41;nan;100608.22;5055619;28;20266;-74
2021/09/25 07:07:03;;;;;;;14.43;10.97;;;;;;;19.23;nan;100604.50;5055235;28;20606;-74
2021/09/25 07:09:28;;;;;;;13.70;10.63;;;;;;;19.53;nan;100608.94;5073212;28;20167;-73
2021/09/25 07:11:53;;;;;;;15.20;10.07;;;;;;;19.53;nan;100608.94;5073392;28;20197;-73
2021/09/25 07:14:19;;;;;;;11.67;9.57;;;;;;;19.83;nan;100608.75;5055410;28;20250;-73
2021/09/25 07:16:45;;;;;;;14.33;9.93;;;;;;;19.73;nan;100607.94;5038471;28;20195;-73
2021/09/25 07:19:10;;;;;;;11.63;9.87;;;;;;;19.92;nan;100612.44;5055060;28;20220;-73
2021/09/25 07:21:36;;;;;;;14.30;9.60;;;;;;;19.78;nan;100605.63;5073170;28;20195;-74
2021/09/25 07:24:01;;;;;;;13.17;9.80;;;;;;;20.05;nan;100604.84;5073681;28;20193;-75
2021/09/25 07:26:26;;;;;;;14.57;9.13;;;;;;;19.92;nan;100609.72;5073517;28;20260;-74
2021/09/25 07:28:51;;;;;;;15.10;9.13;;;;;;;20.01;nan;100614.25;5073608;28;20178;-73
2021/09/25 07:31:17;;;;;;;11.80;9.40;;;;;;;20.07;nan;100618.22;5073794;28;20625;-74
2021/09/25 07:33:42;;;;;;;13.33;9.70;;;;;;;20.06;nan;100613.81;5055282;28;20171;-74
2021/09/25 07:36:08;;;;;;;11.17;8.93;;;;;;;20.11;nan;100616.97;5073110;28;20202;-73
2021/09/25 07:38:34;;;;;;;10.40;9.00;;;;;;;20.06;nan;100619.22;5073518;28;20579;-73
2021/09/25 07:40:59;;;;;;;12.10;8.87;;;;;;;20.28;nan;100627.00;5055610;28;20191;-73
2021/09/25 07:43:25;;;;;;;12.07;9.13;;;;;;;20.39;nan;100623.25;5055007;28;20201;-74
2021/09/25 07:45:51;;;;;;;14.33;9.50;;;;;;;20.22;nan;100623.03;5055286;28;20529;-73
2021/09/25 07:48:16;;;;;;;11.83;8.73;;;;;;;20.25;nan;100628.16;5054947;28;20290;-73
2021/09/25 07:50:41;;;;;;;12.33;9.60;;;;;;;19.98;nan;100628.09;5054983;28;20174;-73
2021/09/25 07:53:07;;;;;;;11.70;8.97;;;;;;;20.07;nan;100635.38;5054943;28;20217;-74
2021/09/25 07:55:32;;;;;;;15.63;10.37;;;;;;;20.49;nan;100645.81;5054815;28;20590;-73
2021/09/25 07:57:58;;;;;;;14.63;9.90;;;;;;;20.03;nan;100631.22;5039083;28;20203;-74
2021/09/25 08:00:23;;;;;;;12.17;8.97;;;;;;;20.03;nan;100641.19;5073578;28;20203;-73
2021/09/25 08:02:49;;;;;;;12.60;10.60;;;;;;;20.09;nan;100644.19;5055016;28;20545;-74
2021/09/25 08:05:14;;;;;;;13.23;9.67;;;;;;;20.36;nan;100648.78;5055012;28;20167;-74
2021/09/25 08:07:40;;;;;;;10.77;9.10;;;;;;;20.49;nan;100654.78;5054910;28;20199;-73
2021/09/25 08:10:08;;;;;;;11.37;9.13;;;;;;;20.45;nan;100655.25;5055166;28;20189;-73
2021/09/25 08:12:33;;;;;;;12.63;8.60;;;;;;;20.62;nan;100643.59;5038017;28;20175;-74
2021/09/25 08:14:58;;;;;;;13.37;8.63;;;;;;;20.48;nan;100638.69;5054565;28;20645;-74
2021/09/25 08:17:24;;;;;;;10.37;8.80;;;;;;;20.53;nan;100642.63;5072739;28;20187;-73
2021/09/25 08:19:49;;;;;;;11.90;8.47;;;;;;;20.63;nan;100634.44;5072793;28;20261;-73
2021/09/25 08:22:15;;;;;;;10.13;8.13;;;;;;;20.86;nan;100640.34;5073123;28;20191;-73
2021/09/25 08:24:42;;;;;;;11.47;8.10;;;;;;;20.75;nan;100645.94;5038100;28;20179;-74
2021/09/25 08:27:07;;;;;;;10.00;7.50;;;;;;;20.88;nan;100650.03;5055193;28;20190;-73
2021/09/25 08:29:33;;;;;;;14.97;9.40;;;;;;;20.84;nan;100664.03;5038485;28;20533;-73
2021/09/25 08:31:58;;;;;;;9.67;7.13;;;;;;;21.10;nan;100648.72;5058685;28;20666;-73
2021/09/25 08:34:23;;;;;;;9.63;7.50;;;;;;;21.31;nan;100662.03;5058794;28;20174;-73
2021/09/25 08:36:49;;;;;;;8.97;7.20;;;;;;;20.93;nan;100652.28;5042639;28;20194;-73
2021/09/25 08:39:14;;;;;;;9.40;7.30;;;;;;;20.92;nan;100648.72;5061388;28;20170;-73
2021/09/25 08:41:41;;;;;;;10.03;6.77;;;;;;;21.10;nan;100666.84;5062871;28;20240;-73
2021/09/25 08:44:06;;;;;;;10.23;8.17;;;;;;;20.91;nan;100676.84;5067363;28;20598;-73
2021/09/25 08:46:33;;;;;;;11.90;7.80;;;;;;;20.88;nan;100695.28;5063585;28;20203;-73
2021/09/25 08:48:58;;;;;;;9.53;7.47;;;;;;;20.57;nan;100683.84;5045951;28;20167;-73
2021/09/25 08:51:23;;;;;;;11.23;7.40;;;;;;;20.49;nan;100679.19;5043479;28;20221;-74
2021/09/25 08:53:49;;;;;;;8.17;6.50;;;;;;;20.64;nan;100684.97;5059971;28;20528;-74
2021/09/25 08:56:14;;;;;;;9.27;6.23;;;;;;;20.71;nan;100683.34;5041381;28;20186;-73
2021/09/25 08:58:40;;;;;;;11.10;8.33;;;;;;;20.26;nan;100672.38;5077597;28;20167;-74
2021/09/25 09:01:06;;;;;;;8.90;6.77;;;;;;;20.29;nan;100683.78;5044531;28;20198;-73
2021/09/25 09:03:37;;;;;;;11.00;8.23;;;;;;;20.60;nan;100688.97;5065625;28;20186;-74
2021/09/25 09:06:15;;;;;;;10.27;6.87;;;;;;;21.00;nan;100698.63;5041128;28;20202;-75
2021/09/25 09:08:43;;;;;;;10.43;6.53;;;;;;;20.97;nan;100693.50;5058248;28;20524;-73
2021/09/25 09:11:08;;;;;;;9.47;6.80;;;;;;;20.73;nan;100686.78;5057695;28;20166;-73
2021/09/25 09:13:36;;;;;;;8.77;6.60;;;;;;;20.80;nan;100687.88;5075492;28;20262;-74
2021/09/25 09:16:03;;;;;;;8.43;6.47;;;;;;;21.09;nan;100689.56;5058028;28;20229;-72
2021/09/25 09:18:31;;;;;;;7.53;5.97;;;;;;;21.31;nan;100683.75;5058240;28;20266;-73
2021/09/25 09:21:12;;;;;;;8.47;6.00;;;;;;;21.44;nan;100697.78;5057550;28;20606;-73
2021/09/25 09:23:45;;;;;;;8.43;6.97;;;;;;;21.59;nan;100678.28;5057459;28;20180;-73
2021/09/25 09:26:13;;;;;;;8.23;6.30;;;;;;;21.43;nan;100685.22;5057929;28;20155;-73
2021/09/25 09:28:39;;;;;;;11.80;6.90;;;;;;;21.46;nan;100687.63;5057901;28;20254;-74
2021/09/25 09:31:06;;;;;;;8.10;6.37;;;;;;;21.65;nan;100666.78;5075603;28;20576;-74
2021/09/25 09:33:33;;;;;;;9.67;6.43;;;;;;;21.37;nan;100675.00;5057344;28;20198;-74
2021/09/25 09:36:34;;;;;;;8.87;5.80;;;;;;;21.59;nan;100691.84;5075121;28;20536;-74
2021/09/25 09:39:11;;;;;;;8.17;6.03;;;;;;;21.51;nan;100695.31;5057715;28;20174;-74
2021/09/25 09:41:39;;;;;;;9.67;6.00;;;;;;;21.26;nan;100694.22;5074719;28;20199;-74
2021/09/25 09:44:06;;;;;;;10.53;6.63;;;;;;;21.07;nan;100678.03;5040565;28;20175;-76
2021/09/25 09:46:37;;;;;;;8.23;5.77;;;;;;;21.08;nan;100685.16;5075051;28;20256;-74
2021/09/25 09:49:02;;;;;;;8.00;6.20;;;;;;;20.80;nan;100697.88;5057236;28;20166;-73
2021/09/25 09:51:35;;;;;;;7.93;6.73;;;;;;;20.76;nan;100707.31;5075028;28;20163;-74
2021/09/25 09:54:00;;;;;;;8.90;6.90;;;;;;;20.95;nan;100707.22;5057184;28;20278;-76
2021/09/25 09:56:26;;;;;;;12.10;7.77;;;;;;;20.33;nan;100694.31;5074845;28;20246;-73
2021/09/25 09:58:56;;;;;;;7.97;7.00;;;;;;;20.05;nan;100721.31;5057532;28;20162;-74
2021/09/25 10:01:22;;;;;;;13.13;7.30;;;;;;;20.16;nan;100723.88;5074838;28;20217;-74
2021/09/25 10:03:47;;;;;;;10.00;7.07;;;;;;;20.55;nan;100729.25;5075469;28;20629;-75
2021/09/25 10:06:12;;;;;;;9.60;8.03;;;;;;;20.28;nan;100716.44;5056839;28;20179;-73
2021/09/25 10:08:38;;;;;;;10.20;7.30;;;;;;;20.60;nan;100735.94;5056875;28;20536;-74
2021/09/25 10:11:03;;;;;;;9.60;6.87;;;;;;;21.31;nan;100726.34;5056905;28;20205;-74
2021/09/25 10:13:29;;;;;;;9.60;7.63;;;;;;;21.07;nan;100711.44;5056467;28;20694;-74
2021/09/25 10:15:55;;;;;;;8.00;6.67;;;;;;;21.27;nan;100717.66;5074829;28;20652;-73
2021/09/25 10:18:20;;;;;;;8.33;6.37;;;;;;;21.05;nan;100716.16;5040120;28;20645;-74
2021/09/25 10:20:45;;;;;;;8.60;6.03;;;;;;;21.65;nan;100724.66;5056556;28;20195;-73
2021/09/25 10:23:11;;;;;;;7.83;5.90;;;;;;;21.51;nan;100703.47;5056615;28;20175;-74
2021/09/25 10:25:36;;;;;;;10.87;7.10;;;;;;;21.80;nan;100712.22;5074409;28;20620;-74
2021/09/25 10:28:21;;;;;;;7.87;5.73;;;;;;;22.25;nan;100726.69;5056481;28;20760;-73
2021/09/25 10:30:49;;;;;;;7.87;5.80;;;;;;;22.42;nan;100721.22;5056778;28;20528;-73
2021/09/25 10:33:15;;;;;;;8.03;6.37;;;;;;;22.25;nan;100721.25;5074423;28;20183;-74
2021/09/25 10:35:40;;;;;;;10.77;5.90;;;;;;;22.05;nan;100718.75;5056101;28;20174;-74
2021/09/25 10:38:05;;;;;;;9.57;5.20;;;;;;;22.13;nan;100720.69;5074251;28;20209;-73
2021/09/25 10:40:35;;;;;;;7.77;5.70;;;;;;;22.31;nan;100726.09;5056319;28;20195;-73
2021/09/25 10:43:17;;;;;;;8.63;5.53;;;;;;;22.11;nan;100706.41;5056319;28;20177;-73
2021/09/25 10:45:43;;;;;;;7.20;4.67;;;;;;;21.74;nan;100698.41;5074157;28;20159;-72
2021/09/25 10:48:19;;;;;;;5.80;4.60;;;;;;;21.79;nan;100723.25;5039563;28;20714;-73
2021/09/25 10:50:57;;;;;;;9.53;4.53;;;;;;;22.33;nan;100726.78;5073948;28;20155;-74
2021/09/25 10:53:33;;;;;;;7.27;4.33;;;;;;;22.74;nan;100736.03;5038953;28;20174;-75
2021/09/25 10:56:05;;;;;;;8.60;4.23;;;;;;;22.77;nan;100728.41;5039491;28;20177;-73
2021/09/25 10:58:38;;;;;;;6.60;4.87;;;;;;;22.38;nan;100708.13;5073807;28;20533;-74
2021/09/25 11:01:13;;;;;;;9.37;4.57;;;;;;;22.44;nan;100708.31;5073775;28;20198;-75
2021/09/25 11:03:47;;;;;;;6.83;4.30;;;;;;;22.48;nan;100711.56;5055958;28;20236;-74
2021/09/25 11:06:27;;;;;;;7.20;4.70;;;;;;;22.46;nan;100721.75;5074363;28;20196;-74
2021/09/25 11:09:05;;;;;;;7.10;4.23;;;;;;;22.60;nan;100731.19;5056020;28;20205;-74
2021/09/25 11:11:46;;;;;;;4.13;3.50;;;;;;;23.03;nan;100731.09;5056619;28;20173;-74
2021/09/25 11:14:29;;;;;;;7.03;4.50;;;;;;;22.84;nan;100723.19;5056999;28;20281;-73
2021/09/25 11:17:03;;;;;;;10.13;4.67;;;;;;;22.63;nan;100715.38;5056589;28;20194;-72
2021/09/25 11:19:31;;;;;;;5.67;4.50;;;;;;;22.88;nan;100737.31;5055607;28;20150;-73
2021/09/25 11:22:00;;;;;;;8.37;4.40;;;;;;;23.17;nan;100732.34;5077103;28;20277;-74
2021/09/25 11:24:29;;;;;;;5.77;3.80;;;;;;;23.29;nan;100731.00;5075472;28;20202;-74